createdAt,value
2023-05-05T00:00:07.405Z,18.60
2023-05-05T00:01:07.243Z,16.10
2023-05-05T00:02:07.231Z,15.00
2023-05-05T00:03:07.283Z,14.00
2023-05-05T00:04:07.343Z,16.30
2023-05-05T00:05:07.185Z,16.00
2023-05-05T00:06:07.160Z,14.90
2023-05-05T00:07:07.165Z,15.80
2023-05-05T00:08:07.143Z,14.90
2023-05-05T00:09:07.234Z,15.50
2023-05-05T00:10:07.300Z,14.50
2023-05-05T00:11:07.132Z,14.10
2023-05-05T00:12:07.120Z,16.00
2023-05-05T00:13:07.222Z,13.30
2023-05-05T00:14:07.115Z,14.80
2023-05-05T00:15:07.139Z,14.20
2023-05-05T00:16:07.104Z,12.60
2023-05-05T00:17:07.153Z,14.20
2023-05-05T00:18:07.101Z,13.60
2023-05-05T00:19:07.083Z,14.90
2023-05-05T00:20:07.186Z,14.80
2023-05-05T00:21:07.069Z,13.20
2023-05-05T00:22:07.053Z,12.70
2023-05-05T00:23:07.029Z,14.30
2023-05-05T00:24:07.039Z,13.30
2023-05-05T00:25:07.021Z,14.50
2023-05-05T00:26:06.997Z,13.90
2023-05-05T00:27:07.228Z,14.30
2023-05-05T00:28:06.977Z,15.20
2023-05-05T00:29:06.988Z,16.20
2023-05-05T00:30:07.250Z,15.50
2023-05-05T00:31:06.971Z,15.80
2023-05-05T00:32:06.960Z,17.00
2023-05-05T00:33:07.001Z,16.90
2023-05-05T00:34:06.950Z,18.60
2023-05-05T00:35:06.948Z,19.90
2023-05-05T00:36:06.923Z,18.90
2023-05-05T00:37:06.917Z,21.30
2023-05-05T00:38:06.903Z,21.40
2023-05-05T00:39:06.959Z,20.50
2023-05-05T00:40:07.231Z,18.90
2023-05-05T00:41:06.889Z,19.40
2023-05-05T00:42:06.877Z,21.50
2023-05-05T00:43:06.871Z,18.60
2023-05-05T00:44:06.858Z,19.30
2023-05-05T00:45:06.895Z,19.50
2023-05-05T00:46:07.043Z,20.70
2023-05-05T00:47:06.846Z,20.00
2023-05-05T00:48:06.926Z,18.10
2023-05-05T00:49:06.887Z,19.70
2023-05-05T00:50:07.090Z,18.90
2023-05-05T00:51:06.848Z,19.50
2023-05-05T00:52:06.789Z,18.40
2023-05-05T00:53:06.825Z,18.00
2023-05-05T00:54:06.768Z,18.80
2023-05-05T00:55:06.784Z,18.30
2023-05-05T00:56:06.751Z,16.40
2023-05-05T00:57:06.782Z,16.40
2023-05-05T00:58:06.761Z,17.80
2023-05-05T00:59:06.753Z,16.10
2023-05-05T01:00:06.972Z,18.60
2023-05-05T01:01:06.722Z,16.80
2023-05-05T01:02:06.712Z,17.90
2023-05-05T01:03:06.846Z,16.90
2023-05-05T01:04:06.806Z,17.10
2023-05-05T01:05:06.683Z,18.00
2023-05-05T01:06:06.692Z,16.00
2023-05-05T01:07:06.670Z,16.70
2023-05-05T01:08:06.658Z,15.60
2023-05-05T01:09:06.682Z,17.00
2023-05-05T01:10:18.838Z,17.50
2023-05-05T01:11:07.656Z,18.20
2023-05-05T01:12:06.644Z,18.50
2023-05-05T01:13:06.735Z,18.00
2023-05-05T01:14:06.659Z,18.80
2023-05-05T01:15:06.622Z,18.00
2023-05-05T01:16:06.649Z,16.90
2023-05-05T01:17:06.642Z,18.20
2023-05-05T01:18:06.701Z,17.20
2023-05-05T01:19:06.575Z,17.80
2023-05-05T01:20:06.728Z,18.00
2023-05-05T01:21:06.579Z,18.20
2023-05-05T01:22:06.547Z,16.80
2023-05-05T01:23:06.569Z,18.90
2023-05-05T01:24:06.535Z,17.20
2023-05-05T01:25:06.540Z,17.20
2023-05-05T01:26:06.516Z,19.40
2023-05-05T01:27:06.505Z,19.70
2023-05-05T01:28:06.498Z,16.70
2023-05-05T01:29:06.509Z,17.40
2023-05-05T01:30:06.683Z,18.40
2023-05-05T01:31:06.614Z,16.50
2023-05-05T01:32:06.461Z,15.60
2023-05-05T01:33:06.472Z,16.60
2023-05-05T01:34:06.444Z,15.70
2023-05-05T01:35:06.449Z,17.60
2023-05-05T01:36:06.427Z,17.70
2023-05-05T01:37:06.430Z,17.70
2023-05-05T01:38:06.398Z,16.60
2023-05-05T01:39:06.439Z,18.80
2023-05-05T01:40:06.639Z,18.10
2023-05-05T01:41:06.435Z,17.50
2023-05-05T01:42:06.364Z,18.40
2023-05-05T01:43:06.371Z,18.30
2023-05-05T01:44:06.365Z,19.60
2023-05-05T01:45:06.354Z,16.80
2023-05-05T01:46:06.391Z,20.60
2023-05-05T01:47:06.355Z,19.10
2023-05-05T01:48:06.361Z,18.00
2023-05-05T01:49:06.310Z,17.80
2023-05-05T01:50:06.538Z,18.20
2023-05-05T01:51:06.303Z,16.90
2023-05-05T01:52:06.277Z,16.80
2023-05-05T01:53:06.331Z,17.70
2023-05-05T01:54:06.254Z,18.20
2023-05-05T01:55:06.264Z,19.30
2023-05-05T01:56:06.246Z,19.10
2023-05-05T01:57:06.316Z,19.00
2023-05-05T01:58:06.239Z,19.90
2023-05-05T01:59:06.344Z,20.80
2023-05-05T02:00:06.476Z,20.40
2023-05-05T02:01:06.375Z,19.80
2023-05-05T02:02:06.206Z,19.30
2023-05-05T02:03:06.301Z,20.60
2023-05-05T02:04:06.208Z,19.90
2023-05-05T02:05:06.217Z,22.60
2023-05-05T02:06:06.173Z,19.10
2023-05-05T02:07:06.151Z,21.50
2023-05-05T02:08:06.157Z,20.00
2023-05-05T02:09:06.142Z,20.40
2023-05-05T02:10:06.405Z,18.50
2023-05-05T02:11:06.134Z,19.40
2023-05-05T02:12:06.138Z,21.00
2023-05-05T02:13:06.202Z,21.70
2023-05-05T02:14:06.122Z,21.10
2023-05-05T02:15:06.100Z,21.80
2023-05-05T02:16:06.163Z,19.80
2023-05-05T02:17:06.081Z,20.90
2023-05-05T02:18:06.097Z,20.80
2023-05-05T02:19:06.068Z,19.70
2023-05-05T02:20:06.179Z,19.00
2023-05-05T02:21:06.038Z,18.60
2023-05-05T02:22:06.108Z,18.80
2023-05-05T02:23:06.095Z,20.60
2023-05-05T02:24:06.043Z,19.20
2023-05-05T02:25:06.053Z,18.00
2023-05-05T02:26:06.031Z,19.50
2023-05-05T02:27:06.009Z,20.50
2023-05-05T02:28:06.023Z,19.90
2023-05-05T02:29:05.990Z,17.70
2023-05-05T02:30:06.219Z,18.40
2023-05-05T02:31:06.016Z,17.70
2023-05-05T02:32:05.988Z,16.90
2023-05-05T02:33:05.973Z,18.20
2023-05-05T02:34:05.979Z,18.20
2023-05-05T02:35:05.928Z,16.60
2023-05-05T02:36:05.938Z,18.10
2023-05-05T02:37:05.906Z,18.00
2023-05-05T02:38:05.905Z,17.70
2023-05-05T02:39:05.892Z,16.30
2023-05-05T02:40:06.072Z,15.70
2023-05-05T02:41:05.869Z,17.50
2023-05-05T02:42:05.923Z,18.30
2023-05-05T02:43:05.969Z,17.70
2023-05-05T02:44:05.866Z,17.40
2023-05-05T02:45:05.851Z,17.10
2023-05-05T02:46:05.913Z,17.10
2023-05-05T02:47:05.853Z,18.10
2023-05-05T02:48:05.865Z,16.10
2023-05-05T02:49:05.817Z,16.70
2023-05-05T02:50:05.941Z,18.00
2023-05-05T02:51:05.806Z,16.00
2023-05-05T02:52:05.824Z,17.40
2023-05-05T02:53:05.787Z,15.00
2023-05-05T02:54:05.779Z,18.40
2023-05-05T02:55:05.762Z,17.90
2023-05-05T02:56:05.763Z,15.60
2023-05-05T02:57:05.744Z,15.70
2023-05-05T02:58:05.783Z,17.10
2023-05-05T02:59:05.732Z,17.60
2023-05-05T03:00:06.043Z,16.90
2023-05-05T03:01:05.742Z,18.80
2023-05-05T03:02:05.719Z,16.90
2023-05-05T03:03:05.806Z,18.70
2023-05-05T03:04:05.724Z,18.90
2023-05-05T03:05:05.680Z,17.00
2023-05-05T03:06:05.674Z,17.10
2023-05-05T03:07:05.670Z,16.20
2023-05-05T03:08:05.672Z,18.10
2023-05-05T03:09:05.646Z,19.20
2023-05-05T03:10:05.934Z,17.20
2023-05-05T03:11:05.630Z,16.60
2023-05-05T03:12:05.649Z,17.60
2023-05-05T03:13:05.644Z,15.80
2023-05-05T03:14:05.622Z,15.40
2023-05-05T03:15:05.581Z,16.60
2023-05-05T03:16:05.691Z,16.30
2023-05-05T03:17:05.587Z,16.00
2023-05-05T03:19:16.976Z,15.00
2023-05-05T03:20:16.984Z,16.80
2023-05-05T03:21:17.004Z,16.40
2023-05-05T03:22:16.976Z,15.90
2023-05-05T03:23:16.952Z,17.40
2023-05-05T03:24:17.061Z,15.50
2023-05-05T03:25:16.970Z,16.00
2023-05-05T03:26:16.930Z,15.00
2023-05-05T03:27:16.911Z,16.00
2023-05-05T03:28:16.952Z,17.70
2023-05-05T03:29:16.926Z,18.00
2023-05-05T03:30:16.914Z,15.90
2023-05-05T03:31:17.007Z,16.20
2023-05-05T03:32:16.898Z,16.30
2023-05-05T03:33:16.883Z,15.70
2023-05-05T03:34:16.865Z,16.30
2023-05-05T03:35:16.853Z,16.10
2023-05-05T03:36:16.866Z,15.20
2023-05-05T03:37:16.828Z,14.80
2023-05-05T03:38:16.904Z,15.70
2023-05-05T03:39:16.892Z,15.30
2023-05-05T03:40:16.824Z,15.30
2023-05-05T03:41:16.795Z,16.40
2023-05-05T03:42:16.799Z,17.10
2023-05-05T03:43:16.792Z,17.50
2023-05-05T03:44:16.794Z,19.70
2023-05-05T03:45:16.807Z,17.60
2023-05-05T03:46:16.807Z,18.80
2023-05-05T03:47:16.754Z,16.40
2023-05-05T03:48:16.743Z,18.10
2023-05-05T03:49:16.733Z,18.80
2023-05-05T03:50:16.734Z,17.00
2023-05-05T03:51:16.748Z,19.90
2023-05-05T03:52:16.740Z,18.40
2023-05-05T03:53:16.730Z,19.00
2023-05-05T03:54:16.700Z,17.40
2023-05-05T03:55:16.690Z,18.40
2023-05-05T03:56:16.790Z,16.00
2023-05-05T03:57:16.712Z,17.10
2023-05-05T03:58:16.695Z,16.60
2023-05-05T03:59:16.650Z,17.90
2023-05-05T04:00:16.647Z,16.00
2023-05-05T04:01:16.655Z,16.40
2023-05-05T04:02:18.775Z,16.70
2023-05-05T04:03:16.780Z,15.80
2023-05-05T04:04:16.684Z,17.00
2023-05-05T04:05:16.625Z,16.10
2023-05-05T04:06:16.612Z,16.70
2023-05-05T04:07:16.608Z,16.10
2023-05-05T04:08:16.601Z,15.60
2023-05-05T04:09:16.612Z,17.00
2023-05-05T04:10:16.590Z,18.00
2023-05-05T04:11:16.580Z,18.40
2023-05-05T04:12:16.613Z,17.80
2023-05-05T04:13:16.570Z,18.70
2023-05-05T04:14:16.548Z,19.10
2023-05-05T04:15:16.668Z,18.10
2023-05-05T04:16:16.583Z,18.70
2023-05-05T04:17:16.525Z,19.40
2023-05-05T04:18:16.517Z,20.60
2023-05-05T04:19:16.584Z,18.50
2023-05-05T04:20:16.506Z,17.90
2023-05-05T04:21:16.501Z,19.40
2023-05-05T04:22:16.485Z,19.80
2023-05-05T04:23:16.462Z,18.30
2023-05-05T04:24:16.546Z,19.40
2023-05-05T04:25:16.469Z,17.20
2023-05-05T04:26:16.451Z,20.10
2023-05-05T04:27:16.490Z,18.00
2023-05-05T04:28:16.461Z,19.50
2023-05-05T04:29:17.437Z,17.30
2023-05-05T04:30:16.530Z,17.90
2023-05-05T04:31:16.435Z,17.40
2023-05-05T04:32:16.409Z,17.60
2023-05-05T04:33:18.367Z,17.40
2023-05-05T04:34:17.304Z,19.30
2023-05-05T04:35:16.387Z,18.20
2023-05-05T04:36:16.392Z,17.70
2023-05-05T04:37:16.873Z,16.70
2023-05-05T04:38:16.347Z,19.30
2023-05-05T04:39:16.376Z,18.20
2023-05-05T04:40:17.814Z,18.30
2023-05-05T04:41:16.391Z,17.80
2023-05-05T04:42:16.331Z,16.90
2023-05-05T04:43:16.312Z,16.20
2023-05-05T04:44:16.301Z,18.90
2023-05-05T04:45:16.311Z,17.10
2023-05-05T04:46:17.175Z,16.60
2023-05-05T04:47:16.284Z,15.70
2023-05-05T04:48:16.274Z,17.10
2023-05-05T04:49:16.262Z,15.60
2023-05-05T04:50:16.259Z,16.40
2023-05-05T04:51:16.547Z,16.30
2023-05-05T04:52:16.244Z,17.80
2023-05-05T04:53:17.319Z,15.00
2023-05-05T04:54:16.224Z,15.90
2023-05-05T04:55:16.207Z,15.40
2023-05-05T04:56:16.210Z,15.40
2023-05-05T04:57:16.190Z,15.30
2023-05-05T04:58:16.253Z,15.70
2023-05-05T04:59:16.218Z,15.40
2023-05-05T05:00:16.199Z,15.60
2023-05-05T05:01:16.164Z,15.20
2023-05-05T05:02:16.253Z,16.50
2023-05-05T05:03:16.233Z,15.50
2023-05-05T05:04:16.145Z,14.90
2023-05-05T05:05:16.167Z,15.20
2023-05-05T05:06:16.262Z,14.40
2023-05-05T05:07:16.254Z,15.50
2023-05-05T05:08:16.114Z,15.90
2023-05-05T05:09:16.094Z,15.40
2023-05-05T05:10:16.109Z,15.90
2023-05-05T05:11:16.123Z,14.40
2023-05-05T05:12:16.594Z,17.30
2023-05-05T05:13:16.116Z,20.80
2023-05-05T05:14:16.114Z,20.10
2023-05-05T05:15:16.688Z,17.80
2023-05-05T05:16:16.070Z,17.90
2023-05-05T05:17:16.273Z,14.90
2023-05-05T05:18:16.039Z,18.10
2023-05-05T05:19:16.020Z,17.30
2023-05-05T05:20:16.055Z,16.00
2023-05-05T05:21:15.996Z,16.50
2023-05-05T05:22:16.035Z,15.90
2023-05-05T05:23:16.000Z,17.40
2023-05-05T05:24:15.987Z,15.50
2023-05-05T05:25:15.990Z,14.70
2023-05-05T05:26:15.960Z,13.30
2023-05-05T05:27:15.961Z,18.30
2023-05-05T05:28:16.027Z,13.80
2023-05-05T05:29:15.948Z,15.40
2023-05-05T05:30:15.973Z,14.60
2023-05-05T05:31:16.027Z,15.80
2023-05-05T05:32:16.038Z,15.50
2023-05-05T05:33:15.933Z,16.50
2023-05-05T05:34:15.948Z,15.40
2023-05-05T05:35:16.044Z,13.90
2023-05-05T05:36:15.904Z,15.20
2023-05-05T05:37:15.890Z,14.20
2023-05-05T05:38:15.864Z,16.40
2023-05-05T05:39:15.883Z,16.20
2023-05-05T05:40:15.889Z,15.60
2023-05-05T05:41:15.853Z,15.50
2023-05-05T05:42:15.829Z,17.70
2023-05-05T05:43:15.824Z,14.20
2023-05-05T05:44:15.856Z,14.60
2023-05-05T05:45:15.811Z,14.60
2023-05-05T05:46:15.901Z,13.70
2023-05-05T05:47:15.796Z,14.90
2023-05-05T05:48:15.787Z,16.10
2023-05-05T05:49:15.868Z,13.30
2023-05-05T05:50:15.852Z,14.10
2023-05-05T05:51:15.772Z,14.00
2023-05-05T05:52:15.756Z,14.60
2023-05-05T05:53:15.753Z,13.80
2023-05-05T05:54:15.742Z,14.90
2023-05-05T05:55:15.776Z,15.50
2023-05-05T05:56:15.707Z,15.90
2023-05-05T05:57:15.717Z,13.90
2023-05-05T05:58:15.697Z,15.80
2023-05-05T05:59:15.700Z,16.90
2023-05-05T06:00:15.678Z,17.30
2023-05-05T06:01:15.737Z,15.00
2023-05-05T06:02:15.682Z,16.50
2023-05-05T06:03:15.821Z,14.90
2023-05-05T06:04:15.688Z,13.50
2023-05-05T06:05:15.665Z,13.90
2023-05-05T06:06:15.637Z,15.40
2023-05-05T06:07:15.673Z,14.80
2023-05-05T06:08:15.647Z,13.00
2023-05-05T06:09:15.618Z,13.60
2023-05-05T06:10:27.413Z,15.80
2023-05-05T06:11:16.603Z,14.10
2023-05-05T06:12:15.587Z,14.60
2023-05-05T06:13:15.739Z,15.30
2023-05-05T06:14:16.313Z,15.20
2023-05-05T06:15:15.563Z,13.10
2023-05-05T06:16:15.618Z,13.90
2023-05-05T06:17:15.558Z,15.30
2023-05-05T06:18:15.528Z,15.50
2023-05-05T06:19:15.607Z,14.90
2023-05-05T06:20:15.514Z,14.40
2023-05-05T06:21:15.524Z,14.90
2023-05-05T06:22:15.546Z,14.80
2023-05-05T06:23:15.488Z,13.60
2023-05-05T06:24:15.488Z,14.00
2023-05-05T06:25:15.489Z,16.70
2023-05-05T06:26:15.473Z,15.70
2023-05-05T06:27:15.457Z,15.00
2023-05-05T06:28:15.460Z,14.20
2023-05-05T06:29:15.447Z,14.50
2023-05-05T06:30:15.436Z,13.60
2023-05-05T06:31:15.954Z,14.10
2023-05-05T06:32:15.421Z,14.40
2023-05-05T06:33:15.479Z,15.00
2023-05-05T06:34:15.405Z,13.70
2023-05-05T06:35:15.397Z,15.10
2023-05-05T06:36:15.432Z,12.50
2023-05-05T06:37:15.424Z,15.10
2023-05-05T06:38:15.354Z,14.10
2023-05-05T06:39:16.186Z,14.30
2023-05-05T06:40:15.349Z,14.40
2023-05-05T06:41:15.342Z,14.00
2023-05-05T06:42:15.369Z,15.30
2023-05-05T06:43:15.329Z,13.30
2023-05-05T06:44:15.332Z,12.10
2023-05-05T06:45:15.363Z,15.70
2023-05-05T06:46:15.386Z,14.50
2023-05-05T06:47:15.299Z,15.40
2023-05-05T06:48:15.322Z,16.60
2023-05-05T06:49:15.293Z,12.90
2023-05-05T06:50:15.285Z,14.00
2023-05-05T06:51:15.313Z,15.30
2023-05-05T06:52:15.355Z,15.60
2023-05-05T06:53:15.277Z,13.90
2023-05-05T06:54:15.262Z,15.20
2023-05-05T06:55:15.509Z,14.90
2023-05-05T06:56:15.214Z,14.00
2023-05-05T06:57:15.216Z,13.60
2023-05-05T06:58:15.234Z,14.70
2023-05-05T06:59:15.212Z,14.60
2023-05-05T07:00:15.216Z,13.70
2023-05-05T07:01:15.292Z,15.00
2023-05-05T07:02:15.182Z,15.30
2023-05-05T07:03:15.257Z,12.20
2023-05-05T07:04:15.219Z,14.70
2023-05-05T07:05:15.149Z,14.00
2023-05-05T07:06:15.177Z,13.90
2023-05-05T07:07:15.180Z,13.30
2023-05-05T07:08:15.195Z,12.40
2023-05-05T07:09:17.003Z,15.50
2023-05-05T07:10:15.107Z,13.60
2023-05-05T07:11:15.115Z,14.20
2023-05-05T07:12:15.119Z,13.40
2023-05-05T07:13:15.275Z,12.00
2023-05-05T07:14:15.063Z,12.30
2023-05-05T07:15:26.721Z,13.40
2023-05-05T07:16:16.073Z,14.60
2023-05-05T07:17:15.071Z,13.60
2023-05-05T07:18:15.087Z,13.50
2023-05-05T07:19:15.034Z,14.00
2023-05-05T07:20:15.039Z,12.60
2023-05-05T07:21:15.017Z,14.00
2023-05-05T07:22:15.014Z,13.50
2023-05-05T07:23:15.045Z,11.40
2023-05-05T07:24:15.077Z,13.40
2023-05-05T07:25:14.980Z,14.30
2023-05-05T07:26:14.980Z,13.20
2023-05-05T07:27:14.965Z,11.40
2023-05-05T07:28:14.995Z,12.00
2023-05-05T07:29:15.021Z,11.60
2023-05-05T07:30:17.566Z,11.30
2023-05-05T07:31:14.959Z,9.90
2023-05-05T07:32:14.957Z,11.80
2023-05-05T07:33:14.921Z,11.60
2023-05-05T07:34:14.911Z,9.80
2023-05-05T07:35:14.904Z,11.30
2023-05-05T07:36:14.939Z,11.70
2023-05-05T07:37:14.903Z,10.70
2023-05-05T07:38:14.873Z,9.50
2023-05-05T07:39:14.952Z,11.30
2023-05-05T07:40:14.987Z,10.60
2023-05-05T07:41:14.878Z,10.00
2023-05-05T07:42:14.866Z,10.10
2023-05-05T07:43:14.862Z,11.20
2023-05-05T07:44:14.832Z,9.90
2023-05-05T07:45:14.824Z,9.60
2023-05-05T07:46:14.863Z,11.70
2023-05-05T07:47:14.838Z,10.80
2023-05-05T07:48:14.835Z,9.90
2023-05-05T07:49:14.793Z,11.70
2023-05-05T07:50:14.776Z,11.00
2023-05-05T07:51:14.794Z,11.60
2023-05-05T07:52:14.750Z,10.60
2023-05-05T07:53:15.210Z,9.70
2023-05-05T07:54:14.768Z,10.50
2023-05-05T07:55:14.751Z,10.60
2023-05-05T07:56:14.784Z,10.00
2023-05-05T07:57:14.746Z,10.40
2023-05-05T07:58:14.720Z,10.10
2023-05-05T07:59:14.729Z,10.00
2023-05-05T08:00:14.756Z,10.20
2023-05-05T08:01:14.700Z,9.80
2023-05-05T08:02:14.727Z,8.70
2023-05-05T08:03:14.705Z,10.30
2023-05-05T08:04:14.740Z,10.40
2023-05-05T08:05:14.666Z,9.60
2023-05-05T08:06:14.672Z,9.20
2023-05-05T08:07:15.456Z,10.60
2023-05-05T08:08:14.644Z,9.70
2023-05-05T08:09:14.622Z,11.10
2023-05-05T08:10:14.617Z,9.20
2023-05-05T08:11:14.724Z,11.10
2023-05-05T08:12:14.676Z,10.40
2023-05-05T08:13:14.638Z,9.40
2023-05-05T08:14:14.588Z,10.20
2023-05-05T08:15:14.588Z,10.50
2023-05-05T08:16:14.621Z,9.70
2023-05-05T08:17:14.663Z,11.20
2023-05-05T08:18:14.708Z,9.40
2023-05-05T08:19:27.668Z,8.50
2023-05-05T08:20:15.535Z,10.70
2023-05-05T08:21:14.556Z,10.00
2023-05-05T08:22:14.528Z,8.60
2023-05-05T08:23:14.551Z,9.00
2023-05-05T08:24:14.519Z,11.20
2023-05-05T08:25:14.569Z,9.90
2023-05-05T08:26:14.508Z,9.80
2023-05-05T08:27:14.503Z,9.00
2023-05-05T08:28:14.570Z,8.90
2023-05-05T08:29:14.525Z,8.90
2023-05-05T08:30:14.494Z,9.40
2023-05-05T08:31:14.467Z,11.80
2023-05-05T08:32:14.443Z,12.40
2023-05-05T08:33:14.539Z,9.80
2023-05-05T08:34:14.427Z,10.70
2023-05-05T08:35:14.505Z,9.00
2023-05-05T08:36:14.429Z,10.10
2023-05-05T08:37:14.419Z,9.80
2023-05-05T08:38:14.482Z,10.50
2023-05-05T08:39:14.425Z,10.70
2023-05-05T08:40:14.506Z,10.40
2023-05-05T08:41:14.530Z,10.40
2023-05-05T08:42:22.310Z,9.70
2023-05-05T08:43:15.382Z,10.70
2023-05-05T08:44:14.493Z,9.90
2023-05-05T08:45:14.373Z,9.40
2023-05-05T08:46:14.380Z,8.40
2023-05-05T08:47:14.417Z,8.10
2023-05-05T08:48:14.339Z,8.70
2023-05-05T08:49:14.335Z,10.10
2023-05-05T08:50:14.306Z,9.50
2023-05-05T08:51:14.317Z,10.00
2023-05-05T08:52:14.319Z,9.50
2023-05-05T08:53:14.322Z,10.50
2023-05-05T08:54:14.288Z,12.40
2023-05-05T08:55:14.298Z,10.60
2023-05-05T08:56:14.261Z,10.10
2023-05-05T08:57:15.269Z,11.60
2023-05-05T08:58:14.269Z,12.60
2023-05-05T08:59:14.293Z,10.00
2023-05-05T09:00:14.396Z,10.20
2023-05-05T09:01:14.236Z,9.70
2023-05-05T09:02:14.235Z,8.30
2023-05-05T09:03:14.467Z,7.80
2023-05-05T09:04:14.208Z,9.70
2023-05-05T09:05:14.210Z,10.30
2023-05-05T09:06:14.175Z,9.30
2023-05-05T09:07:14.226Z,9.10
2023-05-05T09:08:14.202Z,8.00
2023-05-05T09:09:14.162Z,9.90
2023-05-05T09:10:14.184Z,8.60
2023-05-05T09:11:14.157Z,8.50
2023-05-05T09:12:14.119Z,9.10
2023-05-05T09:13:14.168Z,8.90
2023-05-05T09:14:14.117Z,9.50
2023-05-05T09:15:14.102Z,8.50
2023-05-05T09:16:14.608Z,8.50
2023-05-05T09:17:14.090Z,8.60
2023-05-05T09:18:14.064Z,8.70
2023-05-05T09:19:14.072Z,9.50
2023-05-05T09:20:14.109Z,8.30
2023-05-05T09:21:14.055Z,10.50
2023-05-05T09:22:14.066Z,10.20
2023-05-05T09:23:14.052Z,10.80
2023-05-05T09:24:14.020Z,9.90
2023-05-05T09:25:14.024Z,8.90
2023-05-05T09:26:14.020Z,9.70
2023-05-05T09:27:14.064Z,10.50
2023-05-05T09:28:14.039Z,9.80
2023-05-05T09:29:14.123Z,9.00
2023-05-05T09:30:13.970Z,9.50
2023-05-05T09:31:14.113Z,8.30
2023-05-05T09:32:13.970Z,12.30
2023-05-05T09:33:14.028Z,10.60
2023-05-05T09:34:14.045Z,9.10
2023-05-05T09:35:13.943Z,8.30
2023-05-05T09:36:13.937Z,7.80
2023-05-05T09:37:13.960Z,10.30
2023-05-05T09:38:13.917Z,9.00
2023-05-05T09:39:13.913Z,9.30
2023-05-05T09:40:13.951Z,9.90
2023-05-05T09:41:13.889Z,9.40
2023-05-05T09:42:13.875Z,8.70
2023-05-05T09:43:13.872Z,11.50
2023-05-05T09:44:13.870Z,10.90
2023-05-05T09:45:13.882Z,9.20
2023-05-05T09:46:13.956Z,10.20
2023-05-05T09:47:28.462Z,8.70
2023-05-05T09:48:14.918Z,8.90
2023-05-05T09:49:13.854Z,10.70
2023-05-05T09:50:13.822Z,9.30
2023-05-05T09:51:13.851Z,6.90
2023-05-05T09:52:13.807Z,9.50
2023-05-05T09:53:13.794Z,9.20
2023-05-05T09:54:13.776Z,9.70
2023-05-05T09:55:13.859Z,8.90
2023-05-05T09:56:13.933Z,9.50
2023-05-05T09:57:13.776Z,11.50
2023-05-05T09:58:13.825Z,8.30
2023-05-05T09:59:13.760Z,9.60
2023-05-05T10:00:13.755Z,9.80
2023-05-05T10:01:13.838Z,8.60
2023-05-05T10:02:13.770Z,10.20
2023-05-05T10:03:13.935Z,10.50
2023-05-05T10:04:13.875Z,10.40
2023-05-05T10:05:13.772Z,8.40
2023-05-05T10:06:13.678Z,8.40
2023-05-05T10:07:13.686Z,10.40
2023-05-05T10:08:13.718Z,11.70
2023-05-05T10:09:13.671Z,12.00
2023-05-05T10:10:13.649Z,10.80
2023-05-05T10:11:13.630Z,10.10
2023-05-05T10:12:13.624Z,10.30
2023-05-05T10:13:13.676Z,9.40
2023-05-05T10:14:13.630Z,9.60
2023-05-05T10:15:13.601Z,10.50
2023-05-05T10:16:13.661Z,9.30
2023-05-05T10:17:13.584Z,8.90
2023-05-05T10:18:13.635Z,10.90
2023-05-05T10:19:13.618Z,10.20
2023-05-05T10:20:13.580Z,10.80
2023-05-05T10:21:13.572Z,11.40
2023-05-05T10:22:13.556Z,10.90
2023-05-05T10:23:13.536Z,10.10
2023-05-05T10:24:13.540Z,11.30
2023-05-05T10:25:13.567Z,9.90
2023-05-05T10:26:13.507Z,10.40
2023-05-05T10:27:13.508Z,10.60
2023-05-05T10:28:13.500Z,10.80
2023-05-05T10:29:13.476Z,9.70
2023-05-05T10:30:13.485Z,10.50
2023-05-05T10:31:24.209Z,10.30
2023-05-05T10:32:37.106Z,11.00
2023-05-05T10:34:13.580Z,10.30
2023-05-05T10:35:13.442Z,10.30
2023-05-05T10:36:13.510Z,11.40
2023-05-05T10:37:13.489Z,11.80
2023-05-05T10:38:13.430Z,11.20
2023-05-05T10:39:13.408Z,10.60
2023-05-05T10:40:13.427Z,10.30
2023-05-05T10:41:13.396Z,10.80
2023-05-05T10:42:13.473Z,9.60
2023-05-05T10:43:13.421Z,12.30
2023-05-05T10:44:13.408Z,10.70
2023-05-05T10:45:13.421Z,9.20
2023-05-05T10:46:13.423Z,12.20
2023-05-05T10:47:13.450Z,10.50
2023-05-05T10:48:13.476Z,11.10
2023-05-05T10:49:13.594Z,10.30
2023-05-05T10:50:13.372Z,12.10
2023-05-05T10:51:15.420Z,12.00
2023-05-05T10:52:14.484Z,10.30
2023-05-05T10:53:14.005Z,11.70
2023-05-05T10:54:13.410Z,12.90
2023-05-05T10:55:13.300Z,11.00
2023-05-05T10:56:13.296Z,11.40
2023-05-05T10:57:13.288Z,11.40
2023-05-05T10:58:13.327Z,12.30
2023-05-05T10:59:13.276Z,10.60
2023-05-05T11:00:15.084Z,10.30
2023-05-05T11:01:13.263Z,10.90
2023-05-05T11:02:13.325Z,11.10
2023-05-05T11:03:13.347Z,10.60
2023-05-05T11:04:13.263Z,8.80
2023-05-05T11:05:13.276Z,8.90
2023-05-05T11:06:13.250Z,8.40
2023-05-05T11:07:15.056Z,8.80
2023-05-05T11:08:13.317Z,8.80
2023-05-05T11:09:13.185Z,8.80
2023-05-05T11:10:13.212Z,7.70
2023-05-05T11:11:13.218Z,8.10
2023-05-05T11:12:13.181Z,7.20
2023-05-05T11:13:13.170Z,8.10
2023-05-05T11:14:13.214Z,7.90
2023-05-05T11:15:13.147Z,9.20
2023-05-05T11:16:13.281Z,8.90
2023-05-05T11:17:13.131Z,7.80
2023-05-05T11:18:13.153Z,6.90
2023-05-05T11:19:13.136Z,6.70
2023-05-05T11:20:13.176Z,7.30
2023-05-05T11:21:13.133Z,7.60
2023-05-05T11:22:13.122Z,6.90
2023-05-05T11:23:15.210Z,8.20
2023-05-05T11:24:13.265Z,7.10
2023-05-05T11:25:13.097Z,7.70
2023-05-05T11:26:13.070Z,5.90
2023-05-05T11:27:14.095Z,7.50
2023-05-05T11:28:13.293Z,7.10
2023-05-05T11:29:13.056Z,6.30
2023-05-05T11:30:13.249Z,6.00
2023-05-05T11:31:13.053Z,7.30
2023-05-05T11:32:13.071Z,6.50
2023-05-05T11:33:13.051Z,7.10
2023-05-05T11:34:13.009Z,7.50
2023-05-05T11:35:13.008Z,7.60
2023-05-05T11:36:13.048Z,7.30
2023-05-05T11:37:12.970Z,6.80
2023-05-05T11:38:12.999Z,7.50
2023-05-05T11:39:12.954Z,6.80
2023-05-05T11:40:13.018Z,7.30
2023-05-05T11:41:12.959Z,8.40
2023-05-05T11:42:12.985Z,6.10
2023-05-05T11:43:12.933Z,6.90
2023-05-05T11:44:12.925Z,7.10
2023-05-05T11:45:12.939Z,7.80
2023-05-05T11:46:12.965Z,7.30
2023-05-05T11:47:12.898Z,6.00
2023-05-05T11:48:12.929Z,7.40
2023-05-05T11:49:12.891Z,6.60
2023-05-05T11:50:12.951Z,6.80
2023-05-05T11:51:12.873Z,7.40
2023-05-05T11:52:12.943Z,6.80
2023-05-05T11:53:12.899Z,7.60
2023-05-05T11:54:12.866Z,6.30
2023-05-05T11:55:12.837Z,7.70
2023-05-05T11:56:12.846Z,7.10
2023-05-05T11:57:12.820Z,6.70
2023-05-05T11:58:12.893Z,6.30
2023-05-05T11:59:12.840Z,6.50
2023-05-05T12:00:12.872Z,8.00
2023-05-05T12:01:12.779Z,7.10
2023-05-05T12:02:12.778Z,6.00
2023-05-05T12:03:12.840Z,6.00
2023-05-05T12:04:13.083Z,6.30
2023-05-05T12:05:12.773Z,5.80
2023-05-05T12:06:12.761Z,5.80
2023-05-05T12:07:12.729Z,6.30
2023-05-05T12:08:12.809Z,5.50
2023-05-05T12:09:12.779Z,5.10
2023-05-05T12:10:12.766Z,5.30
2023-05-05T12:11:12.740Z,6.00
2023-05-05T12:12:12.751Z,5.30
2023-05-05T12:13:12.734Z,6.90
2023-05-05T12:14:12.725Z,5.50
2023-05-05T12:15:12.730Z,5.60
2023-05-05T12:16:12.754Z,7.30
2023-05-05T12:17:12.674Z,7.20
2023-05-05T12:18:12.740Z,6.00
2023-05-05T12:19:12.701Z,7.40
2023-05-05T12:20:12.907Z,5.00
2023-05-05T12:21:12.628Z,6.20
2023-05-05T12:22:12.676Z,6.10
2023-05-05T12:23:12.599Z,5.80
2023-05-05T12:24:12.613Z,5.00
2023-05-05T12:25:13.655Z,5.30
2023-05-05T12:26:12.629Z,6.80
2023-05-05T12:27:12.593Z,6.80
2023-05-05T12:28:12.634Z,5.40
2023-05-05T12:29:12.578Z,5.40
2023-05-05T12:30:12.573Z,6.00
2023-05-05T12:31:12.641Z,5.40
2023-05-05T12:32:12.770Z,5.90
2023-05-05T12:33:12.546Z,5.60
2023-05-05T12:34:12.531Z,6.40
2023-05-05T12:35:12.544Z,6.90
2023-05-05T12:36:12.582Z,6.10
2023-05-05T12:37:12.510Z,5.80
2023-05-05T12:38:12.517Z,8.30
2023-05-05T12:39:12.489Z,7.00
2023-05-05T12:40:12.512Z,6.50
2023-05-05T12:41:12.630Z,6.30
2023-05-05T12:42:12.486Z,6.80
2023-05-05T12:43:12.467Z,5.70
2023-05-05T12:44:12.491Z,5.50
2023-05-05T12:45:12.427Z,6.30
2023-05-05T12:46:12.617Z,6.40
2023-05-05T12:47:12.458Z,6.50
2023-05-05T12:48:12.432Z,5.40
2023-05-05T12:49:12.473Z,5.60
2023-05-05T12:50:12.466Z,6.60
2023-05-05T12:51:12.397Z,5.90
2023-05-05T12:52:12.444Z,5.90
2023-05-05T12:53:12.403Z,7.30
2023-05-05T12:54:12.390Z,7.30
2023-05-05T12:55:13.091Z,7.40
2023-05-05T12:56:12.390Z,7.30
2023-05-05T12:57:12.409Z,5.80
2023-05-05T12:58:12.353Z,8.10
2023-05-05T12:59:12.395Z,9.40
2023-05-05T13:00:12.411Z,10.40
2023-05-05T13:01:12.348Z,6.50